Time;durP1;ratioP1;P1;durP2;ratioP2;P2;SDS_P1;SDS_P2;PMS_P1;PMS_P2;Temp;Humidity;BMP_temperature;BMP_pressure;BME280_temperature;BME280_humidity;BME280_pressure;Samples;Min_cycle;Max_cycle;Signal;HPM_P1;HPM_P2
2024/02/26 00:00:29;;;;;;;6.03;4.23;;;3.70;88.10;;;;;;5066437;28;20198;-61
2024/02/26 00:02:54;;;;;;;5.70;3.80;;;3.70;87.30;;;;;;5068509;28;20167;-61
2024/02/26 00:05:20;;;;;;;5.43;3.97;;;3.70;86.20;;;;;;5064829;28;21173;-61
2024/02/26 00:07:46;;;;;;;6.37;3.57;;;3.70;85.50;;;;;;5062433;28;20201;-61
2024/02/26 00:10:13;;;;;;;5.63;3.70;;;3.70;85.10;;;;;;5065262;28;20630;-61
2024/02/26 00:12:39;;;;;;;5.60;4.30;;;3.70;85.60;;;;;;5069821;28;21212;-61
2024/02/26 00:15:06;;;;;;;8.80;5.10;;;3.70;85.80;;;;;;5064250;28;20951;-61
2024/02/26 00:17:31;;;;;;;8.30;4.50;;;3.70;86.90;;;;;;5065280;28;20242;-61
2024/02/26 00:19:57;;;;;;;8.80;5.10;;;3.80;87.20;;;;;;5068030;28;20815;-62
2024/02/26 00:22:23;;;;;;;9.77;5.93;;;3.80;87.90;;;;;;5071443;28;20175;-61
2024/02/26 00:24:48;;;;;;;12.00;5.53;;;3.80;89.30;;;;;;5065969;28;20232;-60
2024/02/26 00:27:14;;;;;;;7.90;5.17;;;3.80;90.30;;;;;;5067566;28;20260;-62
2024/02/26 00:29:39;;;;;;;11.63;5.60;;;3.80;90.10;;;;;;5083569;28;20182;-61
2024/02/26 00:32:06;;;;;;;7.07;5.00;;;3.80;89.60;;;;;;5064425;28;20216;-63
2024/02/26 00:34:31;;;;;;;14.47;6.40;;;3.80;89.70;;;;;;5059454;28;20829;-62
2024/02/26 00:36:57;;;;;;;10.93;6.27;;;3.70;90.20;;;;;;5068058;28;20506;-60
2024/02/26 00:39:22;;;;;;;11.10;6.00;;;3.80;91.10;;;;;;5069326;28;20637;-62
2024/02/26 00:41:48;;;;;;;10.03;5.60;;;3.70;91.10;;;;;;5066799;28;20191;-61
2024/02/26 00:44:14;;;;;;;19.50;5.50;;;3.60;91.30;;;;;;5059553;28;20177;-61
2024/02/26 00:46:39;;;;;;;8.30;5.37;;;3.70;91.80;;;;;;5067157;28;20258;-60
2024/02/26 00:49:05;;;;;;;7.30;4.60;;;3.60;92.10;;;;;;5078391;28;20243;-61
2024/02/26 00:51:31;;;;;;;8.30;5.30;;;3.60;92.40;;;;;;5068057;28;20199;-62
2024/02/26 00:53:57;;;;;;;7.53;5.20;;;3.60;92.30;;;;;;5063398;28;20259;-62
2024/02/26 00:56:22;;;;;;;13.80;5.13;;;3.70;93.10;;;;;;5067961;28;20496;-61
2024/02/26 00:58:48;;;;;;;10.13;4.73;;;3.60;93.20;;;;;;5061501;28;20795;-61
2024/02/26 01:01:13;;;;;;;9.47;4.60;;;3.70;93.30;;;;;;5061937;28;20190;-61
2024/02/26 01:03:39;;;;;;;8.80;4.90;;;3.70;93.20;;;;;;5067252;28;20197;-61
2024/02/26 01:06:05;;;;;;;6.20;4.47;;;3.70;93.40;;;;;;5064891;28;20170;-61
2024/02/26 01:08:31;;;;;;;8.33;4.30;;;3.70;93.40;;;;;;5067592;28;20188;-60
2024/02/26 01:10:57;;;;;;;7.20;5.00;;;3.70;93.40;;;;;;5067976;28;20194;-61
2024/02/26 01:13:22;;;;;;;6.43;4.30;;;3.70;93.00;;;;;;5065159;28;20744;-61
2024/02/26 01:15:48;;;;;;;8.07;4.60;;;3.70;93.10;;;;;;5067508;28;20201;-61
2024/02/26 01:18:14;;;;;;;7.47;4.60;;;3.70;93.30;;;;;;5063324;28;20232;-61
2024/02/26 01:20:39;;;;;;;8.03;4.03;;;3.70;92.80;;;;;;5064705;28;20216;-62
2024/02/26 01:23:05;;;;;;;6.83;4.70;;;3.80;92.50;;;;;;5067834;28;20257;-61
2024/02/26 01:25:31;;;;;;;3.93;3.40;;;3.70;92.20;;;;;;5067161;28;20545;-61
2024/02/26 01:27:56;;;;;;;6.93;4.70;;;3.80;92.50;;;;;;5064406;28;20515;-60
2024/02/26 01:30:22;;;;;;;6.07;3.77;;;3.80;92.50;;;;;;5059833;28;20195;-61
2024/02/26 01:32:48;;;;;;;5.60;3.93;;;3.80;91.80;;;;;;5065019;28;20220;-62
2024/02/26 01:35:13;;;;;;;9.93;4.10;;;3.80;91.70;;;;;;5061150;28;20175;-61
2024/02/26 01:37:40;;;;;;;6.77;3.93;;;3.80;92.10;;;;;;5060798;28;20173;-61
2024/02/26 01:40:06;;;;;;;6.57;3.53;;;3.80;92.10;;;;;;5064904;28;20194;-63
2024/02/26 01:42:32;;;;;;;4.83;3.83;;;3.80;91.90;;;;;;5068274;28;20577;-62
2024/02/26 01:44:59;;;;;;;5.30;3.93;;;3.80;92.50;;;;;;5066421;28;20926;-61
2024/02/26 01:47:26;;;;;;;7.90;4.33;;;3.90;92.50;;;;;;5064184;28;20416;-61
2024/02/26 01:49:52;;;;;;;6.30;4.27;;;3.90;93.30;;;;;;5063572;28;20423;-61
2024/02/26 01:52:18;;;;;;;7.70;4.37;;;3.90;93.20;;;;;;5063786;28;20459;-61
2024/02/26 01:54:46;;;;;;;10.00;3.93;;;3.80;91.80;;;;;;5067119;28;20420;-61
2024/02/26 01:57:13;;;;;;;5.83;3.73;;;3.90;92.40;;;;;;5058369;28;20438;-61
2024/02/26 01:59:40;;;;;;;7.50;4.47;;;3.90;93.40;;;;;;5061946;28;20511;-61
2024/02/26 02:02:07;;;;;;;5.00;3.90;;;3.90;93.80;;;;;;5064826;28;20455;-61
2024/02/26 02:04:34;;;;;;;4.90;4.30;;;3.90;93.60;;;;;;5065482;28;20429;-62
2024/02/26 02:07:01;;;;;;;11.13;5.63;;;3.90;93.90;;;;;;5066191;28;20429;-61
2024/02/26 02:09:28;;;;;;;6.37;4.30;;;4.00;95.70;;;;;;5064480;28;20521;-62
2024/02/26 02:11:54;;;;;;;6.40;4.57;;;3.90;95.40;;;;;;5066514;28;20435;-60
2024/02/26 02:14:19;;;;;;;8.43;4.47;;;3.90;95.60;;;;;;5060023;28;20434;-61
2024/02/26 02:16:47;;;;;;;6.77;5.27;;;3.90;96.70;;;;;;5066597;28;20949;-61
2024/02/26 02:19:13;;;;;;;7.33;5.47;;;3.90;97.30;;;;;;5065274;28;20194;-61
2024/02/26 02:21:38;;;;;;;8.50;4.93;;;3.80;98.30;;;;;;5061792;28;20472;-61
2024/02/26 02:24:04;;;;;;;7.93;5.30;;;3.80;99.80;;;;;;5067017;28;20427;-61
2024/02/26 02:26:30;;;;;;;7.13;4.60;;;3.80;99.70;;;;;;5066575;28;20596;-62
2024/02/26 02:28:55;;;;;;;7.40;4.70;;;3.80;99.90;;;;;;5075085;28;20832;-62
2024/02/26 02:31:21;;;;;;;9.00;5.10;;;3.80;99.70;;;;;;5061207;28;20708;-62
2024/02/26 02:33:46;;;;;;;6.90;4.43;;;3.80;99.80;;;;;;5080960;28;20170;-61
2024/02/26 02:36:12;;;;;;;8.67;4.70;;;3.80;99.90;;;;;;5063240;28;20270;-60
2024/02/26 02:38:38;;;;;;;7.73;4.07;;;3.80;99.90;;;;;;5065740;28;20221;-61
2024/02/26 02:41:05;;;;;;;7.13;4.40;;;3.80;99.90;;;;;;5082925;28;20195;-62
2024/02/26 02:43:30;;;;;;;6.70;4.37;;;3.80;99.90;;;;;;5064613;28;20198;-61
2024/02/26 02:45:56;;;;;;;8.33;4.17;;;3.80;99.20;;;;;;5063487;28;20491;-62
2024/02/26 02:48:22;;;;;;;8.77;4.20;;;3.90;98.20;;;;;;5074531;28;20179;-61
2024/02/26 02:50:47;;;;;;;6.40;4.80;;;3.90;97.60;;;;;;5065541;28;20851;-61
2024/02/26 02:53:13;;;;;;;7.53;3.47;;;3.90;97.40;;;;;;5063109;28;20738;-61
2024/02/26 02:55:38;;;;;;;5.20;3.50;;;4.00;97.00;;;;;;5067115;28;20225;-63
2024/02/26 02:58:04;;;;;;;4.90;3.50;;;4.00;97.70;;;;;;5081626;28;20206;-62
2024/02/26 03:00:30;;;;;;;4.77;4.00;;;4.00;97.70;;;;;;5056746;28;20281;-61
2024/02/26 03:02:55;;;;;;;5.47;4.03;;;4.00;97.70;;;;;;5063229;28;20179;-62
2024/02/26 03:05:21;;;;;;;5.67;4.17;;;4.00;98.20;;;;;;5063136;28;20589;-61
2024/02/26 03:07:47;;;;;;;6.10;3.60;;;4.10;98.00;;;;;;5062207;28;20301;-61
2024/02/26 03:10:13;;;;;;;7.70;4.27;;;4.00;97.30;;;;;;5064717;28;21034;-60
2024/02/26 03:12:39;;;;;;;5.80;3.90;;;4.00;96.60;;;;;;5066965;28;20175;-61
2024/02/26 03:15:05;;;;;;;6.90;3.70;;;4.00;95.00;;;;;;5066200;28;20473;-61
2024/02/26 03:17:30;;;;;;;9.80;3.97;;;4.00;94.80;;;;;;5066269;28;20721;-60
2024/02/26 03:19:56;;;;;;;9.67;4.43;;;4.10;94.20;;;;;;5080511;28;20456;-61
2024/02/26 03:22:22;;;;;;;6.43;4.20;;;4.00;94.90;;;;;;5064665;28;20225;-61
2024/02/26 03:24:48;;;;;;;6.30;4.37;;;4.00;94.70;;;;;;5070928;28;20167;-61
2024/02/26 03:27:14;;;;;;;8.00;3.73;;;4.00;94.50;;;;;;5068015;28;20190;-61
2024/02/26 03:29:40;;;;;;;7.90;3.47;;;4.10;94.00;;;;;;5066570;28;20460;-61
2024/02/26 03:32:06;;;;;;;8.43;3.80;;;4.10;92.70;;;;;;5068587;28;20465;-62
2024/02/26 03:34:35;;;;;;;12.10;4.60;;;4.10;91.40;;;;;;5063726;28;20445;-61
2024/02/26 03:37:01;;;;;;;4.73;3.80;;;4.20;92.40;;;;;;5067915;28;20528;-63
2024/02/26 03:39:27;;;;;;;5.10;3.90;;;4.20;92.40;;;;;;5063858;28;21114;-61
2024/02/26 03:41:52;;;;;;;4.27;3.57;;;4.20;93.70;;;;;;5065836;28;20225;-61
2024/02/26 03:44:18;;;;;;;5.70;4.00;;;4.20;94.30;;;;;;5064755;28;20273;-61
2024/02/26 03:46:44;;;;;;;4.93;3.40;;;4.20;94.80;;;;;;5084552;28;20174;-62
2024/02/26 03:49:09;;;;;;;7.07;3.80;;;4.20;95.70;;;;;;5067626;28;20548;-63
2024/02/26 03:51:35;;;;;;;5.40;3.57;;;4.20;98.40;;;;;;5066076;28;20203;-60
2024/02/26 03:54:01;;;;;;;4.90;3.73;;;4.10;99.90;;;;;;5067088;28;20208;-61
2024/02/26 03:56:27;;;;;;;5.47;4.17;;;4.10;99.90;;;;;;5062947;28;20182;-61
2024/02/26 03:58:53;;;;;;;4.77;3.43;;;4.10;99.90;;;;;;5068951;28;20978;-61
2024/02/26 04:01:19;;;;;;;5.17;3.93;;;4.10;99.90;;;;;;5066148;28;20818;-61
2024/02/26 04:03:44;;;;;;;5.30;3.70;;;4.10;99.90;;;;;;5069986;28;20416;-61
2024/02/26 04:06:11;;;;;;;5.60;4.10;;;4.10;98.60;;;;;;5067648;28;20174;-60
2024/02/26 04:08:37;;;;;;;6.57;3.50;;;4.00;99.20;;;;;;5080201;28;20172;-62
2024/02/26 04:11:07;;;;;;;5.73;3.90;;;4.00;99.30;;;;;;5068837;28;21199;-61
2024/02/26 04:13:33;;;;;;;5.60;3.27;;;4.00;99.40;;;;;;5068267;28;20495;-61
2024/02/26 04:16:01;;;;;;;3.77;3.37;;;4.10;98.40;;;;;;5068691;28;20529;-62
2024/02/26 04:18:27;;;;;;;3.30;2.70;;;4.10;98.00;;;;;;5065840;28;20463;-61
2024/02/26 04:20:53;;;;;;;4.43;3.33;;;4.10;98.50;;;;;;5063443;28;20531;-61
2024/02/26 04:23:18;;;;;;;5.70;3.80;;;4.10;98.20;;;;;;5066949;28;20861;-62
2024/02/26 04:25:44;;;;;;;8.30;4.13;;;4.10;98.70;;;;;;5066801;28;20539;-61
2024/02/26 04:28:10;;;;;;;4.37;3.47;;;4.10;99.00;;;;;;5067026;28;20269;-60
2024/02/26 04:30:37;;;;;;;5.43;4.00;;;4.10;98.70;;;;;;5068455;28;20448;-61
2024/02/26 04:33:03;;;;;;;4.73;3.60;;;4.10;98.50;;;;;;5082138;28;20248;-61
2024/02/26 04:35:28;;;;;;;10.40;4.20;;;4.10;98.50;;;;;;5065803;28;20435;-61
2024/02/26 04:37:54;;;;;;;6.50;4.10;;;4.10;97.50;;;;;;5083375;28;20899;-61
2024/02/26 04:40:19;;;;;;;5.20;3.50;;;4.10;97.50;;;;;;5058685;28;20702;-61
2024/02/26 04:42:45;;;;;;;4.53;3.73;;;4.10;96.70;;;;;;5062907;28;20177;-62
2024/02/26 04:45:10;;;;;;;6.30;3.73;;;4.10;96.20;;;;;;5068202;28;20181;-60
2024/02/26 04:47:36;;;;;;;6.23;4.23;;;4.10;95.10;;;;;;5060509;28;20548;-61
2024/02/26 04:50:02;;;;;;;10.77;7.00;;;4.10;94.00;;;;;;5063483;28;20173;-61
2024/02/26 04:52:27;;;;;;;6.17;4.50;;;4.10;94.40;;;;;;5067021;28;20567;-61
2024/02/26 04:54:54;;;;;;;10.67;4.47;;;4.10;93.90;;;;;;5066279;28;20565;-61
2024/02/26 04:57:20;;;;;;;5.53;3.97;;;4.20;93.80;;;;;;5064110;28;20174;-62
2024/02/26 04:59:46;;;;;;;9.27;4.73;;;4.20;95.00;;;;;;5067108;28;20829;-62
2024/02/26 05:02:12;;;;;;;14.10;4.67;;;4.20;95.80;;;;;;5064075;28;20520;-65
2024/02/26 05:04:38;;;;;;;9.50;4.83;;;4.20;95.70;;;;;;5072341;28;20182;-63
2024/02/26 05:07:03;;;;;;;7.47;5.00;;;4.30;95.70;;;;;;5072443;28;20433;-59
2024/02/26 05:09:29;;;;;;;5.60;4.30;;;4.30;96.20;;;;;;5064571;28;20187;-61
2024/02/26 05:11:55;;;;;;;5.33;3.80;;;4.30;96.20;;;;;;5056576;28;20245;-61
2024/02/26 05:14:21;;;;;;;7.60;4.70;;;4.30;95.80;;;;;;5066819;28;20186;-62
2024/02/26 05:16:47;;;;;;;8.30;3.87;;;4.30;94.40;;;;;;5065118;28;20178;-61
2024/02/26 05:19:13;;;;;;;9.57;4.90;;;4.30;93.30;;;;;;5065337;28;20539;-61
2024/02/26 05:21:39;;;;;;;8.67;4.93;;;4.40;93.10;;;;;;5062342;28;20555;-61
2024/02/26 05:24:05;;;;;;;8.97;4.70;;;4.40;92.80;;;;;;5066346;28;20258;-61
2024/02/26 05:26:31;;;;;;;7.93;4.40;;;4.40;92.60;;;;;;5065252;28;20428;-61
2024/02/26 05:29:00;;;;;;;6.83;4.50;;;4.40;92.30;;;;;;5062313;28;20475;-60
2024/02/26 05:31:27;;;;;;;5.60;4.30;;;4.40;92.10;;;;;;5058457;28;20826;-61
2024/02/26 05:33:53;;;;;;;7.80;4.37;;;4.40;91.80;;;;;;5066171;28;20414;-61
2024/02/26 05:36:24;;;;;;;4.53;3.67;;;4.40;91.10;;;;;;5061591;28;20441;-61
2024/02/26 05:38:49;;;;;;;16.97;6.87;;;4.40;92.10;;;;;;5057945;28;20456;-61
2024/02/26 05:41:16;;;;;;;11.40;6.33;;;4.30;92.40;;;;;;5061639;28;21073;-61
2024/02/26 05:43:42;;;;;;;9.43;5.60;;;4.30;92.80;;;;;;5068096;28;20174;-57
2024/02/26 05:46:08;;;;;;;8.13;5.40;;;4.30;93.40;;;;;;5063974;28;21021;-61
2024/02/26 05:48:34;;;;;;;12.23;5.13;;;4.30;94.10;;;;;;5065462;28;20400;-61
2024/02/26 05:50:59;;;;;;;10.33;4.63;;;4.30;93.90;;;;;;5060652;28;20468;-61
2024/02/26 05:53:25;;;;;;;10.33;5.17;;;4.40;93.20;;;;;;5064863;28;20684;-61
2024/02/26 05:55:51;;;;;;;7.37;4.83;;;4.30;92.00;;;;;;5055482;28;20195;-60
2024/02/26 05:58:16;;;;;;;10.13;5.70;;;4.40;92.60;;;;;;5067420;28;20281;-60
2024/02/26 06:00:42;;;;;;;10.10;4.73;;;4.40;93.00;;;;;;5060021;28;20193;-61
2024/02/26 06:03:07;;;;;;;10.10;4.40;;;4.40;94.10;;;;;;5066901;28;20170;-61
2024/02/26 06:05:33;;;;;;;6.30;4.60;;;4.40;94.20;;;;;;5061832;28;20174;-61
2024/02/26 06:07:59;;;;;;;8.83;4.20;;;4.40;94.40;;;;;;5067670;28;20167;-61
2024/02/26 06:10:24;;;;;;;7.33;4.10;;;4.40;94.90;;;;;;5068621;28;20201;-61
2024/02/26 06:12:50;;;;;;;9.47;4.43;;;4.40;96.10;;;;;;5066841;28;20723;-61
2024/02/26 06:15:16;;;;;;;10.57;3.57;;;4.40;96.60;;;;;;5068247;28;20163;-61
2024/02/26 06:17:41;;;;;;;7.47;4.20;;;4.40;96.90;;;;;;5067503;28;20170;-61
2024/02/26 06:20:11;;;;;;;6.27;4.00;;;4.30;97.00;;;;;;5078866;28;20178;-60
2024/02/26 06:22:37;;;;;;;6.40;4.20;;;4.30;97.70;;;;;;5063220;28;20172;-61
2024/02/26 06:25:03;;;;;;;7.03;4.60;;;4.30;98.40;;;;;;5068035;28;20497;-61
2024/02/26 06:27:28;;;;;;;9.30;4.40;;;4.30;98.80;;;;;;5064623;28;20693;-62
2024/02/26 06:29:54;;;;;;;5.70;4.07;;;4.30;99.30;;;;;;5058667;28;20662;-60
2024/02/26 06:32:19;;;;;;;6.20;3.80;;;4.30;99.50;;;;;;5065339;28;20189;-61
2024/02/26 06:34:45;;;;;;;9.60;4.27;;;4.30;99.90;;;;;;5064541;28;20257;-61
2024/02/26 06:37:11;;;;;;;9.57;4.53;;;4.30;99.90;;;;;;5066109;28;20220;-61
2024/02/26 06:39:37;;;;;;;8.57;4.30;;;4.30;99.90;;;;;;5067456;28;20206;-62
2024/02/26 06:42:03;;;;;;;5.90;4.83;;;4.30;99.90;;;;;;5063857;28;20247;-61
2024/02/26 06:44:31;;;;;;;8.90;5.27;;;4.40;99.90;;;;;;5067134;28;20451;-61
2024/02/26 06:47:01;;;;;;;12.97;6.10;;;4.40;99.90;;;;;;5061884;28;20173;-60
2024/02/26 06:49:27;;;;;;;7.70;6.40;;;4.40;99.90;;;;;;5064755;28;20465;-62
2024/02/26 06:51:53;;;;;;;11.67;6.63;;;4.40;99.90;;;;;;5067384;28;20443;-61
2024/02/26 06:54:19;;;;;;;8.90;6.20;;;4.40;99.90;;;;;;5067622;28;20455;-61
2024/02/26 06:56:45;;;;;;;9.13;5.10;;;4.40;99.90;;;;;;5082406;28;20997;-61
2024/02/26 06:59:10;;;;;;;7.50;4.77;;;4.40;99.90;;;;;;5062834;28;20492;-61
2024/02/26 07:01:36;;;;;;;7.23;4.40;;;4.40;99.90;;;;;;5083777;28;20202;-60
2024/02/26 07:04:01;;;;;;;7.77;5.10;;;4.50;99.90;;;;;;5066527;28;20194;-62
2024/02/26 07:06:27;;;;;;;10.23;5.07;;;4.50;99.90;;;;;;5067936;28;20244;-61
2024/02/26 07:08:53;;;;;;;8.10;5.30;;;4.50;99.90;;;;;;5068755;28;20166;-62
2024/02/26 07:11:19;;;;;;;9.77;5.80;;;4.50;99.90;;;;;;5069240;28;20191;-62
2024/02/26 07:13:46;;;;;;;8.43;5.00;;;4.50;99.90;;;;;;5070888;28;21022;-63
2024/02/26 07:16:11;;;;;;;9.33;5.50;;;4.50;99.90;;;;;;5067409;28;20519;-62
2024/02/26 07:18:39;;;;;;;10.37;6.00;;;4.50;99.90;;;;;;5069067;28;20949;-61
2024/02/26 07:21:04;;;;;;;10.40;6.40;;;4.50;99.90;;;;;;5070119;28;20202;-61
2024/02/26 07:23:30;;;;;;;11.00;5.47;;;4.50;99.90;;;;;;5071850;28;20415;-61
2024/02/26 07:25:56;;;;;;;9.77;5.67;;;4.50;99.90;;;;;;5070765;28;20171;-61
2024/02/26 07:28:22;;;;;;;17.43;5.33;;;4.50;99.90;;;;;;5069269;28;20435;-63
2024/02/26 07:30:47;;;;;;;9.73;5.30;;;4.50;99.90;;;;;;5067202;28;20198;-62
2024/02/26 07:33:13;;;;;;;12.47;6.07;;;4.50;99.90;;;;;;5085856;28;20206;-62
2024/02/26 07:35:38;;;;;;;7.03;4.70;;;4.50;99.90;;;;;;5069031;28;20253;-61
2024/02/26 07:38:05;;;;;;;7.60;4.93;;;4.50;99.90;;;;;;5061643;28;20215;-62
2024/02/26 07:40:30;;;;;;;8.23;5.63;;;4.50;99.90;;;;;;5069627;28;20201;-61
2024/02/26 07:42:56;;;;;;;6.43;4.50;;;4.50;99.90;;;;;;5069236;28;20413;-62
2024/02/26 07:45:22;;;;;;;8.60;5.03;;;4.60;99.90;;;;;;5064385;28;20171;-62
2024/02/26 07:47:48;;;;;;;10.27;5.47;;;4.60;99.90;;;;;;5067557;28;20231;-62
2024/02/26 07:50:14;;;;;;;11.73;5.30;;;4.60;99.90;;;;;;5063617;28;20182;-61
2024/02/26 07:52:40;;;;;;;8.17;4.83;;;4.60;99.90;;;;;;5069144;28;20400;-62
2024/02/26 07:55:06;;;;;;;10.33;5.47;;;4.60;99.90;;;;;;5067779;28;20453;-62
2024/02/26 07:57:35;;;;;;;9.90;5.37;;;4.70;99.90;;;;;;5068686;28;20436;-62
2024/02/26 08:00:02;;;;;;;6.30;4.73;;;4.70;99.90;;;;;;5070294;28;20449;-63
2024/02/26 08:02:28;;;;;;;9.57;5.03;;;4.70;99.90;;;;;;5068979;28;20428;-62
2024/02/26 08:04:53;;;;;;;7.63;4.83;;;4.70;99.90;;;;;;5063601;28;20811;-62
2024/02/26 08:07:21;;;;;;;5.90;4.53;;;4.80;99.90;;;;;;5057157;28;20451;-62
2024/02/26 08:09:46;;;;;;;9.30;4.80;;;4.80;99.90;;;;;;5065871;28;20186;-62
2024/02/26 08:12:12;;;;;;;6.63;4.90;;;4.90;99.90;;;;;;5085638;28;21874;-62
2024/02/26 08:14:38;;;;;;;9.60;4.93;;;4.90;99.90;;;;;;5065054;28;20221;-62
2024/02/26 08:17:03;;;;;;;6.90;5.30;;;5.00;99.90;;;;;;5060459;28;20174;-58
2024/02/26 08:19:29;;;;;;;6.17;4.73;;;5.00;99.90;;;;;;5068849;28;20301;-62
2024/02/26 08:21:55;;;;;;;7.70;4.60;;;5.10;99.90;;;;;;5085182;28;20264;-62
2024/02/26 08:24:20;;;;;;;7.87;4.83;;;5.10;99.90;;;;;;5068505;28;20196;-62
2024/02/26 08:26:46;;;;;;;8.37;4.17;;;5.20;99.90;;;;;;5057375;28;20570;-61
2024/02/26 08:29:12;;;;;;;7.70;4.63;;;5.20;99.90;;;;;;5063487;28;20186;-62
2024/02/26 08:31:37;;;;;;;8.07;4.80;;;5.30;99.90;;;;;;5055312;28;20737;-62
2024/02/26 08:34:06;;;;;;;7.13;4.93;;;5.30;99.90;;;;;;5068090;28;20258;-63
2024/02/26 08:36:34;;;;;;;8.57;4.77;;;5.40;99.90;;;;;;5067068;28;20620;-62
2024/02/26 08:39:00;;;;;;;8.70;5.73;;;5.40;99.90;;;;;;5069235;28;20483;-61
2024/02/26 08:41:25;;;;;;;7.87;5.17;;;5.50;99.90;;;;;;5068700;28;20463;-62
2024/02/26 08:43:51;;;;;;;8.80;5.23;;;5.50;99.90;;;;;;5069178;28;21008;-62
2024/02/26 08:46:17;;;;;;;9.10;6.30;;;5.60;99.90;;;;;;5064148;28;20181;-62
2024/02/26 08:48:43;;;;;;;12.20;6.40;;;5.60;99.90;;;;;;5064707;28;20185;-61
2024/02/26 08:51:09;;;;;;;10.67;7.20;;;5.80;99.90;;;;;;5069023;28;21089;-61
2024/02/26 08:53:35;;;;;;;10.37;6.63;;;5.90;99.90;;;;;;5069451;28;20270;-62
2024/02/26 08:56:01;;;;;;;20.43;6.80;;;6.00;97.70;;;;;;5068801;28;22571;-61
2024/02/26 08:58:30;;;;;;;8.20;5.60;;;6.10;94.30;;;;;;5067950;28;20539;-62
2024/02/26 09:00:56;;;;;;;7.67;4.73;;;6.20;91.70;;;;;;5068276;28;20942;-62
2024/02/26 09:03:22;;;;;;;9.90;5.07;;;6.20;91.40;;;;;;5067905;28;20508;-62
2024/02/26 09:05:48;;;;;;;8.30;4.53;;;6.30;90.50;;;;;;5060587;28;20695;-62
2024/02/26 09:08:13;;;;;;;8.87;5.03;;;6.40;89.20;;;;;;5059667;28;20480;-61
2024/02/26 09:10:39;;;;;;;6.67;4.70;;;6.60;87.70;;;;;;5064262;28;20480;-62
2024/02/26 09:13:05;;;;;;;9.53;4.80;;;6.70;86.50;;;;;;5067942;28;20175;-62
2024/02/26 09:15:31;;;;;;;10.20;5.00;;;6.90;85.70;;;;;;5067557;28;20181;-63
2024/02/26 09:17:56;;;;;;;12.90;4.77;;;7.10;87.50;;;;;;5067940;28;20178;-61
2024/02/26 09:20:23;;;;;;;8.03;4.90;;;7.20;88.90;;;;;;5067426;28;20202;-62
2024/02/26 09:22:49;;;;;;;9.83;4.90;;;7.40;85.90;;;;;;5069159;28;20175;-64
2024/02/26 09:25:17;;;;;;;8.67;4.40;;;7.60;85.90;;;;;;5067440;28;20424;-61
2024/02/26 09:27:44;;;;;;;5.23;4.10;;;7.80;86.70;;;;;;5068124;28;20410;-62
2024/02/26 09:30:13;;;;;;;5.33;4.00;;;8.00;85.60;;;;;;5060681;28;20878;-62
2024/02/26 09:32:39;;;;;;;11.43;4.50;;;8.30;83.40;;;;;;5060336;28;20486;-63
2024/02/26 09:35:06;;;;;;;5.43;4.37;;;8.60;80.20;;;;;;5054339;28;20791;-62
2024/02/26 09:37:33;;;;;;;7.20;3.83;;;8.80;77.50;;;;;;5059165;28;20432;-61
2024/02/26 09:39:59;;;;;;;8.20;4.07;;;9.00;73.70;;;;;;5061812;28;20605;-62
2024/02/26 09:42:31;;;;;;;3.53;2.27;;;9.10;71.00;;;;;;5065522;28;20511;-62
2024/02/26 09:45:01;;;;;;;2.73;2.50;;;9.30;70.50;;;;;;5063347;28;20255;-62
2024/02/26 09:47:30;;;;;;;2.87;2.27;;;9.30;67.60;;;;;;5097854;22;20511;-61
2024/02/26 09:49:58;;;;;;;5.63;2.20;;;9.40;67.00;;;;;;5066555;28;20431;-61
2024/02/26 09:52:25;;;;;;;4.20;2.30;;;9.40;66.00;;;;;;5067436;28;20397;-61
2024/02/26 09:54:51;;;;;;;3.53;2.83;;;9.50;64.90;;;;;;5063025;28;20495;-61
2024/02/26 09:57:17;;;;;;;10.93;2.77;;;9.50;64.80;;;;;;5056259;28;20985;-60
2024/02/26 09:59:43;;;;;;;4.57;2.20;;;9.50;63.40;;;;;;5055503;28;20194;-61
2024/02/26 10:02:12;;;;;;;2.80;2.43;;;9.50;63.10;;;;;;5042248;28;20461;-61
2024/02/26 10:04:40;;;;;;;2.60;2.40;;;9.60;62.20;;;;;;5047056;28;20406;-61
2024/02/26 10:07:11;;;;;;;3.50;2.33;;;9.70;62.50;;;;;;5041149;28;20442;-61
2024/02/26 10:09:37;;;;;;;5.30;2.20;;;9.80;62.20;;;;;;5023768;28;20420;-61
2024/02/26 10:12:04;;;;;;;3.53;2.60;;;9.90;61.90;;;;;;5044720;28;20437;-61
2024/02/26 10:14:30;;;;;;;3.57;2.43;;;9.90;61.50;;;;;;5047173;28;20272;-61
2024/02/26 10:16:56;;;;;;;4.50;2.30;;;10.00;60.40;;;;;;5044503;28;20856;-61
2024/02/26 10:19:27;;;;;;;5.33;2.50;;;10.10;60.00;;;;;;5044205;28;20536;-61
2024/02/26 10:22:00;;;;;;;3.87;2.57;;;10.10;59.70;;;;;;5049638;28;21085;-62
2024/02/26 10:24:27;;;;;;;3.80;2.40;;;10.20;59.80;;;;;;5050452;28;20483;-61
2024/02/26 10:26:54;;;;;;;3.73;2.07;;;10.20;59.90;;;;;;5052142;28;20428;-61
2024/02/26 10:29:21;;;;;;;2.23;1.77;;;10.30;58.80;;;;;;5045588;28;20433;-61
2024/02/26 10:31:46;;;;;;;2.37;1.80;;;10.30;58.40;;;;;;5049385;28;20487;-61
2024/02/26 10:34:12;;;;;;;3.73;1.67;;;10.40;58.10;;;;;;5050275;28;20433;-61
2024/02/26 10:36:41;;;;;;;2.13;1.60;;;10.30;57.60;;;;;;5054482;28;20175;-61
2024/02/26 10:39:07;;;;;;;2.93;1.63;;;10.40;57.50;;;;;;5050430;28;20452;-61
2024/02/26 10:41:33;;;;;;;2.53;2.00;;;10.40;56.80;;;;;;5050228;28;20504;-62
2024/02/26 10:43:59;;;;;;;2.00;1.70;;;10.40;56.10;;;;;;5031871;28;20421;-62
2024/02/26 10:46:26;;;;;;;2.50;1.70;;;10.50;56.10;;;;;;5049331;28;20432;-60
2024/02/26 10:48:52;;;;;;;2.67;2.13;;;10.50;55.60;;;;;;5042841;28;20214;-62
2024/02/26 10:51:23;;;;;;;4.27;1.30;;;10.60;55.40;;;;;;5048544;28;20413;-58
2024/02/26 10:53:56;;;;;;;1.90;1.17;;;10.70;55.00;;;;;;5046578;28;20985;-59
2024/02/26 10:56:25;;;;;;;2.50;1.20;;;10.70;55.20;;;;;;5045783;28;20437;-58
2024/02/26 10:58:52;;;;;;;1.20;1.03;;;10.70;54.60;;;;;;5047058;28;20967;-59
2024/02/26 11:01:19;;;;;;;3.00;1.33;;;10.80;54.40;;;;;;5049336;28;20440;-59
2024/02/26 11:03:45;;;;;;;1.93;1.53;;;10.80;53.90;;;;;;5047675;28;20418;-59
2024/02/26 11:06:12;;;;;;;2.90;1.40;;;10.70;53.50;;;;;;5043268;28;20441;-58
2024/02/26 11:08:39;;;;;;;1.93;1.70;;;10.70;53.20;;;;;;5048192;28;20438;-58
2024/02/26 11:11:05;;;;;;;4.40;1.50;;;10.70;53.50;;;;;;5049903;28;20406;-58
2024/02/26 11:13:32;;;;;;;1.10;1.10;;;10.70;53.30;;;;;;5049626;28;20525;-59
2024/02/26 11:15:58;;;;;;;1.30;1.20;;;10.70;53.10;;;;;;5044262;28;20417;-60
2024/02/26 11:18:26;;;;;;;1.30;1.20;;;10.80;53.10;;;;;;5046515;28;20485;-59
2024/02/26 11:20:56;;;;;;;7.10;1.30;;;10.80;53.20;;;;;;5047803;28;20448;-60
2024/02/26 11:23:22;;;;;;;1.20;1.10;;;10.90;53.20;;;;;;5045988;28;20953;-59
2024/02/26 11:25:49;;;;;;;1.00;1.00;;;10.90;52.70;;;;;;5050712;28;20422;-60
2024/02/26 11:28:19;;;;;;;1.63;1.37;;;11.00;52.80;;;;;;5047924;28;20199;-59
2024/02/26 11:30:47;;;;;;;2.33;1.30;;;11.10;52.70;;;;;;5049980;28;20429;-59
2024/02/26 11:33:14;;;;;;;1.97;1.20;;;11.20;52.50;;;;;;5046012;28;20430;-60
2024/02/26 11:35:40;;;;;;;1.40;1.30;;;11.20;52.50;;;;;;5047012;28;20435;-59
2024/02/26 11:38:07;;;;;;;1.73;1.50;;;11.20;52.40;;;;;;5048229;28;20437;-60
2024/02/26 11:40:38;;;;;;;1.00;1.00;;;11.30;51.70;;;;;;5049536;28;20777;-59
2024/02/26 11:43:04;;;;;;;7.80;4.07;;;11.20;50.40;;;;;;5048631;28;20429;-59
2024/02/26 11:45:38;;;;;;;1.57;1.33;;;11.20;51.00;;;;;;5039702;28;20429;-59
2024/02/26 11:48:25;;;;;;;1.50;1.40;;;11.10;51.00;;;;;;5030443;28;20218;-60
2024/02/26 11:50:52;;;;;;;1.40;1.30;;;11.10;51.20;;;;;;5043066;28;20517;-59
2024/02/26 11:53:31;;;;;;;1.30;1.20;;;11.20;51.10;;;;;;5047157;28;20449;-59
2024/02/26 11:56:29;;;;;;;3.03;1.30;;;11.20;50.90;;;;;;5044752;28;20405;-59
2024/02/26 11:58:58;;;;;;;1.20;1.10;;;11.30;50.30;;;;;;5044493;28;20449;-59
2024/02/26 12:01:35;;;;;;;2.03;1.77;;;11.30;49.80;;;;;;5057206;28;20962;-60
2024/02/26 12:04:02;;;;;;;1.23;1.10;;;11.30;48.80;;;;;;5053492;28;20425;-60
2024/02/26 12:06:28;;;;;;;2.10;1.30;;;11.20;47.50;;;;;;5047874;28;20418;-58
2024/02/26 12:08:55;;;;;;;1.20;1.10;;;11.20;46.80;;;;;;5053951;28;20498;-60
2024/02/26 12:11:21;;;;;;;1.10;1.00;;;11.10;46.70;;;;;;5049042;28;20417;-59
2024/02/26 12:13:50;;;;;;;1.77;1.30;;;11.10;46.90;;;;;;5054194;28;20470;-58
2024/02/26 12:16:38;;;;;;;1.23;1.13;;;11.00;46.80;;;;;;5051222;28;20906;-58
2024/02/26 12:19:08;;;;;;;4.90;2.40;;;11.00;46.80;;;;;;5044945;28;20457;-59
2024/02/26 12:21:37;;;;;;;1.93;1.73;;;10.90;46.80;;;;;;5049955;28;20445;-59
2024/02/26 12:24:14;;;;;;;5.30;1.53;;;10.90;46.80;;;;;;5051469;28;20473;-58
2024/02/26 12:26:40;;;;;;;1.63;1.40;;;10.80;47.20;;;;;;5030584;28;20433;-58
2024/02/26 12:29:07;;;;;;;3.50;1.30;;;10.80;47.30;;;;;;5048342;28;20500;-58
2024/02/26 12:31:33;;;;;;;3.07;1.30;;;10.80;47.70;;;;;;5049173;28;20966;-58
2024/02/26 12:34:00;;;;;;;2.33;1.27;;;10.80;47.70;;;;;;5049226;28;20803;-60
2024/02/26 12:36:26;;;;;;;1.67;1.20;;;10.80;47.90;;;;;;5029865;28;20413;-60
2024/02/26 12:38:52;;;;;;;1.93;1.50;;;10.90;48.30;;;;;;5027352;28;20452;-59
2024/02/26 12:41:17;;;;;;;1.47;1.37;;;10.80;48.20;;;;;;5049014;28;20496;-59
2024/02/26 12:43:43;;;;;;;1.43;1.30;;;10.90;48.20;;;;;;5030432;28;20174;-59
2024/02/26 12:46:10;;;;;;;3.57;1.60;;;10.90;48.50;;;;;;5044256;28;20267;-59
2024/02/26 12:48:36;;;;;;;1.40;1.30;;;10.90;48.50;;;;;;5046469;28;20615;-60